sensor_id;sensor_type;location;lat;lon;timestamp;temperature;humidity
38726;DHT22;24474;48.906;8.808;2022-12-13T00:00:39;-4.50;99.90
38726;DHT22;24474;48.906;8.808;2022-12-13T00:03:06;-4.50;99.90
38726;DHT22;24474;48.906;8.808;2022-12-13T00:05:32;-4.50;99.90
38726;DHT22;24474;48.906;8.808;2022-12-13T00:07:59;-4.50;99.90
38726;DHT22;24474;48.906;8.808;2022-12-13T00:10:25;-4.60;99.90
38726;DHT22;24474;48.906;8.808;2022-12-13T00:12:51;-4.60;99.90
38726;DHT22;24474;48.906;8.808;2022-12-13T00:15:16;-4.70;99.90
38726;DHT22;24474;48.906;8.808;2022-12-13T00:17:43;-4.70;99.90
38726;DHT22;24474;48.906;8.808;2022-12-13T00:20:10;-4.70;99.90
38726;DHT22;24474;48.906;8.808;2022-12-13T00:22:35;-4.70;99.90
38726;DHT22;24474;48.906;8.808;2022-12-13T00:25:01;-4.80;99.90
38726;DHT22;24474;48.906;8.808;2022-12-13T00:27:26;-4.80;99.90
38726;DHT22;24474;48.906;8.808;2022-12-13T00:29:52;-4.80;99.90
38726;DHT22;24474;48.906;8.808;2022-12-13T00:32:17;-4.80;99.90
38726;DHT22;24474;48.906;8.808;2022-12-13T00:34:43;-4.80;99.90
38726;DHT22;24474;48.906;8.808;2022-12-13T00:37:09;-4.80;99.90
38726;DHT22;24474;48.906;8.808;2022-12-13T00:39:34;-4.80;99.90
38726;DHT22;24474;48.906;8.808;2022-12-13T00:42:00;-4.80;99.90
38726;DHT22;24474;48.906;8.808;2022-12-13T00:44:25;-4.80;99.90
38726;DHT22;24474;48.906;8.808;2022-12-13T00:46:52;-4.80;99.90
38726;DHT22;24474;48.906;8.808;2022-12-13T00:49:18;-4.80;99.90
38726;DHT22;24474;48.906;8.808;2022-12-13T00:51:44;-4.80;99.90
38726;DHT22;24474;48.906;8.808;2022-12-13T00:54:09;-4.90;99.90
38726;DHT22;24474;48.906;8.808;2022-12-13T00:56:35;-4.80;99.90
38726;DHT22;24474;48.906;8.808;2022-12-13T00:59:01;-4.90;99.90
38726;DHT22;24474;48.906;8.808;2022-12-13T01:01:29;-4.90;99.90
38726;DHT22;24474;48.906;8.808;2022-12-13T01:03:55;-4.90;99.90
38726;DHT22;24474;48.906;8.808;2022-12-13T01:06:32;-4.90;99.90
38726;DHT22;24474;48.906;8.808;2022-12-13T01:08:59;-4.90;99.90
38726;DHT22;24474;48.906;8.808;2022-12-13T01:11:24;-4.90;99.90
38726;DHT22;24474;48.906;8.808;2022-12-13T01:13:51;-4.90;99.90
38726;DHT22;24474;48.906;8.808;2022-12-13T01:16:18;-4.90;99.90
38726;DHT22;24474;48.906;8.808;2022-12-13T01:18:44;-4.90;99.90
38726;DHT22;24474;48.906;8.808;2022-12-13T01:21:14;-4.90;99.90
38726;DHT22;24474;48.906;8.808;2022-12-13T01:23:40;-4.90;99.90
38726;DHT22;24474;48.906;8.808;2022-12-13T01:26:08;-4.90;99.90
38726;DHT22;24474;48.906;8.808;2022-12-13T01:28:36;-4.90;99.90
38726;DHT22;24474;48.906;8.808;2022-12-13T01:31:06;-5.00;99.90
38726;DHT22;24474;48.906;8.808;2022-12-13T01:33:32;-5.00;99.90
38726;DHT22;24474;48.906;8.808;2022-12-13T01:36:02;-5.00;99.90
38726;DHT22;24474;48.906;8.808;2022-12-13T01:38:28;-5.10;99.90
38726;DHT22;24474;48.906;8.808;2022-12-13T01:40:55;-5.10;99.90
38726;DHT22;24474;48.906;8.808;2022-12-13T01:43:25;-5.10;99.90
38726;DHT22;24474;48.906;8.808;2022-12-13T01:45:50;-5.10;99.90
38726;DHT22;24474;48.906;8.808;2022-12-13T01:48:18;-5.20;99.90
38726;DHT22;24474;48.906;8.808;2022-12-13T01:50:47;-5.10;99.90
38726;DHT22;24474;48.906;8.808;2022-12-13T01:53:16;-5.20;99.90
38726;DHT22;24474;48.906;8.808;2022-12-13T01:55:44;-5.20;99.90
38726;DHT22;24474;48.906;8.808;2022-12-13T01:58:12;-5.20;99.90
38726;DHT22;24474;48.906;8.808;2022-12-13T02:00:38;-5.20;99.90
38726;DHT22;24474;48.906;8.808;2022-12-13T02:03:06;-5.20;99.90
38726;DHT22;24474;48.906;8.808;2022-12-13T02:05:36;-5.20;99.90
38726;DHT22;24474;48.906;8.808;2022-12-13T02:08:04;-5.10;99.90
38726;DHT22;24474;48.906;8.808;2022-12-13T02:10:30;-5.20;99.90
38726;DHT22;24474;48.906;8.808;2022-12-13T02:12:56;-5.20;99.90
38726;DHT22;24474;48.906;8.808;2022-12-13T02:15:33;-5.20;99.90
38726;DHT22;24474;48.906;8.808;2022-12-13T02:25:59;-5.20;99.90
38726;DHT22;24474;48.906;8.808;2022-12-13T02:28:47;-5.30;99.90
38726;DHT22;24474;48.906;8.808;2022-12-13T02:31:17;-5.30;99.90
38726;DHT22;24474;48.906;8.808;2022-12-13T02:39:00;-5.30;99.90
38726;DHT22;24474;48.906;8.808;2022-12-13T02:41:29;-5.30;99.90
38726;DHT22;24474;48.906;8.808;2022-12-13T02:46:38;-5.40;99.90
38726;DHT22;24474;48.906;8.808;2022-12-13T02:49:06;-5.40;99.90
38726;DHT22;24474;48.906;8.808;2022-12-13T02:51:35;-5.40;99.90
38726;DHT22;24474;48.906;8.808;2022-12-13T02:54:03;-5.40;99.90
38726;DHT22;24474;48.906;8.808;2022-12-13T02:56:30;-5.30;99.90
38726;DHT22;24474;48.906;8.808;2022-12-13T02:58:56;-5.40;99.90
38726;DHT22;24474;48.906;8.808;2022-12-13T03:01:37;-5.40;99.90
38726;DHT22;24474;48.906;8.808;2022-12-13T03:09:48;-5.50;99.90
38726;DHT22;24474;48.906;8.808;2022-12-13T03:12:23;-5.50;99.90
38726;DHT22;24474;48.906;8.808;2022-12-13T03:17:40;-5.50;99.90
38726;DHT22;24474;48.906;8.808;2022-12-13T03:20:08;-5.50;99.90
38726;DHT22;24474;48.906;8.808;2022-12-13T03:22:34;-5.50;99.90
38726;DHT22;24474;48.906;8.808;2022-12-13T03:24:59;-5.50;99.90
38726;DHT22;24474;48.906;8.808;2022-12-13T03:27:25;-5.50;99.90
38726;DHT22;24474;48.906;8.808;2022-12-13T03:29:51;-5.50;99.90
38726;DHT22;24474;48.906;8.808;2022-12-13T03:32:16;-5.50;99.90
38726;DHT22;24474;48.906;8.808;2022-12-13T03:34:42;-5.60;99.90
38726;DHT22;24474;48.906;8.808;2022-12-13T03:37:08;-5.50;99.90
38726;DHT22;24474;48.906;8.808;2022-12-13T03:39:33;-5.60;99.90
38726;DHT22;24474;48.906;8.808;2022-12-13T03:41:59;-5.60;99.90
38726;DHT22;24474;48.906;8.808;2022-12-13T03:44:25;-5.60;99.90
38726;DHT22;24474;48.906;8.808;2022-12-13T03:46:50;-5.50;99.90
38726;DHT22;24474;48.906;8.808;2022-12-13T03:49:17;-5.50;99.90
38726;DHT22;24474;48.906;8.808;2022-12-13T03:51:42;-5.50;99.90
38726;DHT22;24474;48.906;8.808;2022-12-13T03:54:08;-5.50;99.90
38726;DHT22;24474;48.906;8.808;2022-12-13T03:56:33;-5.50;99.90
38726;DHT22;24474;48.906;8.808;2022-12-13T03:58:59;-5.50;99.90
38726;DHT22;24474;48.906;8.808;2022-12-13T04:01:26;-5.50;99.90
38726;DHT22;24474;48.906;8.808;2022-12-13T04:03:52;-5.50;99.90
38726;DHT22;24474;48.906;8.808;2022-12-13T04:06:17;-5.50;99.90
38726;DHT22;24474;48.906;8.808;2022-12-13T04:08:43;-5.50;99.90
38726;DHT22;24474;48.906;8.808;2022-12-13T04:11:08;-5.50;99.90
38726;DHT22;24474;48.906;8.808;2022-12-13T04:13:53;-5.50;99.90
38726;DHT22;24474;48.906;8.808;2022-12-13T04:16:19;-5.50;99.90
38726;DHT22;24474;48.906;8.808;2022-12-13T04:18:44;-5.50;99.90
38726;DHT22;24474;48.906;8.808;2022-12-13T04:21:10;-5.50;99.90
38726;DHT22;24474;48.906;8.808;2022-12-13T04:23:35;-5.50;99.90
38726;DHT22;24474;48.906;8.808;2022-12-13T04:26:01;-5.50;99.90
38726;DHT22;24474;48.906;8.808;2022-12-13T04:28:28;-5.60;99.90
38726;DHT22;24474;48.906;8.808;2022-12-13T04:30:53;-5.50;99.90
38726;DHT22;24474;48.906;8.808;2022-12-13T04:33:19;-5.60;99.90
38726;DHT22;24474;48.906;8.808;2022-12-13T04:35:45;-5.60;99.90
38726;DHT22;24474;48.906;8.808;2022-12-13T04:38:11;-5.60;99.90
38726;DHT22;24474;48.906;8.808;2022-12-13T04:40:36;-5.60;99.90
38726;DHT22;24474;48.906;8.808;2022-12-13T04:43:02;-5.60;99.90
38726;DHT22;24474;48.906;8.808;2022-12-13T04:45:28;-5.60;99.90
38726;DHT22;24474;48.906;8.808;2022-12-13T04:47:53;-5.60;99.90
38726;DHT22;24474;48.906;8.808;2022-12-13T04:50:19;-5.60;99.90
38726;DHT22;24474;48.906;8.808;2022-12-13T04:52:44;-5.60;99.90
38726;DHT22;24474;48.906;8.808;2022-12-13T04:55:10;-5.60;99.90
38726;DHT22;24474;48.906;8.808;2022-12-13T04:57:35;-5.60;99.90
38726;DHT22;24474;48.906;8.808;2022-12-13T05:00:06;-5.60;99.90
38726;DHT22;24474;48.906;8.808;2022-12-13T05:02:33;-5.60;99.90
38726;DHT22;24474;48.906;8.808;2022-12-13T05:04:58;-5.60;99.90
38726;DHT22;24474;48.906;8.808;2022-12-13T05:07:25;-5.60;99.90
38726;DHT22;24474;48.906;8.808;2022-12-13T05:09:50;-5.70;99.90
38726;DHT22;24474;48.906;8.808;2022-12-13T05:12:16;-5.70;99.90
38726;DHT22;24474;48.906;8.808;2022-12-13T05:14:49;-5.70;99.90
38726;DHT22;24474;48.906;8.808;2022-12-13T05:17:15;-5.70;99.90
38726;DHT22;24474;48.906;8.808;2022-12-13T05:19:41;-5.70;99.90
38726;DHT22;24474;48.906;8.808;2022-12-13T05:22:07;-5.70;99.90
38726;DHT22;24474;48.906;8.808;2022-12-13T05:24:43;-5.70;99.90
38726;DHT22;24474;48.906;8.808;2022-12-13T05:27:09;-5.80;99.90
38726;DHT22;24474;48.906;8.808;2022-12-13T05:29:35;-5.80;99.90
38726;DHT22;24474;48.906;8.808;2022-12-13T05:32:00;-5.80;99.90
38726;DHT22;24474;48.906;8.808;2022-12-13T05:34:26;-5.80;99.90
38726;DHT22;24474;48.906;8.808;2022-12-13T05:36:51;-5.80;99.90
38726;DHT22;24474;48.906;8.808;2022-12-13T05:39:17;-5.80;99.90
38726;DHT22;24474;48.906;8.808;2022-12-13T05:41:42;-5.80;99.90
38726;DHT22;24474;48.906;8.808;2022-12-13T05:44:08;-5.80;99.90
38726;DHT22;24474;48.906;8.808;2022-12-13T05:46:35;-5.80;99.90
38726;DHT22;24474;48.906;8.808;2022-12-13T05:49:00;-5.90;99.90
38726;DHT22;24474;48.906;8.808;2022-12-13T05:51:26;-5.90;99.90
38726;DHT22;24474;48.906;8.808;2022-12-13T05:53:52;-5.90;99.90
38726;DHT22;24474;48.906;8.808;2022-12-13T05:56:17;-5.90;99.90
38726;DHT22;24474;48.906;8.808;2022-12-13T05:58:43;-5.90;99.90
38726;DHT22;24474;48.906;8.808;2022-12-13T06:01:09;-5.90;99.90
38726;DHT22;24474;48.906;8.808;2022-12-13T06:03:35;-5.90;99.90
38726;DHT22;24474;48.906;8.808;2022-12-13T06:06:01;-5.90;99.90
38726;DHT22;24474;48.906;8.808;2022-12-13T06:08:27;-5.90;99.90
38726;DHT22;24474;48.906;8.808;2022-12-13T06:10:54;-6.00;99.90
38726;DHT22;24474;48.906;8.808;2022-12-13T06:14:08;-5.90;99.90
38726;DHT22;24474;48.906;8.808;2022-12-13T06:16:33;-6.00;99.90
38726;DHT22;24474;48.906;8.808;2022-12-13T06:18:59;-5.90;99.90
38726;DHT22;24474;48.906;8.808;2022-12-13T06:21:25;-6.00;99.90
38726;DHT22;24474;48.906;8.808;2022-12-13T06:23:51;-6.00;99.90
38726;DHT22;24474;48.906;8.808;2022-12-13T06:26:19;-6.00;99.90
38726;DHT22;24474;48.906;8.808;2022-12-13T06:28:49;-6.00;99.90
38726;DHT22;24474;48.906;8.808;2022-12-13T06:31:15;-6.00;99.90
38726;DHT22;24474;48.906;8.808;2022-12-13T06:33:40;-6.00;99.90
38726;DHT22;24474;48.906;8.808;2022-12-13T06:39:29;-6.00;99.90
38726;DHT22;24474;48.906;8.808;2022-12-13T06:41:55;-6.10;99.90
38726;DHT22;24474;48.906;8.808;2022-12-13T06:44:20;-6.10;99.90
38726;DHT22;24474;48.906;8.808;2022-12-13T06:46:47;-6.10;99.90
38726;DHT22;24474;48.906;8.808;2022-12-13T06:49:13;-6.10;99.90
38726;DHT22;24474;48.906;8.808;2022-12-13T06:51:39;-6.10;99.90
38726;DHT22;24474;48.906;8.808;2022-12-13T06:54:04;-6.10;99.90
38726;DHT22;24474;48.906;8.808;2022-12-13T06:56:31;-6.20;99.90
38726;DHT22;24474;48.906;8.808;2022-12-13T06:58:58;-6.20;99.90
38726;DHT22;24474;48.906;8.808;2022-12-13T07:01:24;-6.20;99.90
38726;DHT22;24474;48.906;8.808;2022-12-13T07:03:49;-6.20;99.90
38726;DHT22;24474;48.906;8.808;2022-12-13T07:06:21;-6.20;99.90
38726;DHT22;24474;48.906;8.808;2022-12-13T07:08:49;-6.20;99.90
38726;DHT22;24474;48.906;8.808;2022-12-13T07:11:18;-6.20;99.90
38726;DHT22;24474;48.906;8.808;2022-12-13T07:13:44;-6.30;99.90
38726;DHT22;24474;48.906;8.808;2022-12-13T07:16:10;-6.20;99.90
38726;DHT22;24474;48.906;8.808;2022-12-13T07:18:36;-6.30;99.90
38726;DHT22;24474;48.906;8.808;2022-12-13T07:21:07;-6.20;99.90
38726;DHT22;24474;48.906;8.808;2022-12-13T07:23:34;-6.20;99.90
38726;DHT22;24474;48.906;8.808;2022-12-13T07:26:00;-6.20;99.90
38726;DHT22;24474;48.906;8.808;2022-12-13T07:28:31;-6.20;99.90
38726;DHT22;24474;48.906;8.808;2022-12-13T07:30:59;-6.20;99.90
38726;DHT22;24474;48.906;8.808;2022-12-13T07:33:25;-6.20;99.90
38726;DHT22;24474;48.906;8.808;2022-12-13T07:35:59;-6.20;99.90
38726;DHT22;24474;48.906;8.808;2022-12-13T07:38:25;-6.10;99.90
38726;DHT22;24474;48.906;8.808;2022-12-13T07:40:50;-6.10;99.90
38726;DHT22;24474;48.906;8.808;2022-12-13T07:43:17;-6.10;99.90
38726;DHT22;24474;48.906;8.808;2022-12-13T07:45:43;-6.10;99.90
38726;DHT22;24474;48.906;8.808;2022-12-13T07:48:08;-6.10;99.90
38726;DHT22;24474;48.906;8.808;2022-12-13T07:50:35;-6.10;99.90
38726;DHT22;24474;48.906;8.808;2022-12-13T07:53:04;-6.10;99.90
38726;DHT22;24474;48.906;8.808;2022-12-13T07:55:32;-6.00;99.90
38726;DHT22;24474;48.906;8.808;2022-12-13T07:58:11;-6.10;99.90
38726;DHT22;24474;48.906;8.808;2022-12-13T08:00:39;-6.10;99.90
38726;DHT22;24474;48.906;8.808;2022-12-13T08:03:06;-6.10;99.90
38726;DHT22;24474;48.906;8.808;2022-12-13T08:05:33;-5.90;99.90
38726;DHT22;24474;48.906;8.808;2022-12-13T08:08:00;-6.00;99.90
38726;DHT22;24474;48.906;8.808;2022-12-13T08:10:28;-6.00;99.90
38726;DHT22;24474;48.906;8.808;2022-12-13T08:12:56;-6.00;99.90
38726;DHT22;24474;48.906;8.808;2022-12-13T08:15:23;-6.00;99.90
38726;DHT22;24474;48.906;8.808;2022-12-13T08:17:51;-5.90;99.90
38726;DHT22;24474;48.906;8.808;2022-12-13T08:20:19;-5.90;99.90
38726;DHT22;24474;48.906;8.808;2022-12-13T08:22:52;-5.90;99.90
38726;DHT22;24474;48.906;8.808;2022-12-13T08:25:18;-5.90;99.90
38726;DHT22;24474;48.906;8.808;2022-12-13T08:27:44;-5.90;99.90
38726;DHT22;24474;48.906;8.808;2022-12-13T08:30:10;-5.80;99.90
38726;DHT22;24474;48.906;8.808;2022-12-13T08:32:35;-5.80;99.90
38726;DHT22;24474;48.906;8.808;2022-12-13T08:35:01;-5.80;99.90
38726;DHT22;24474;48.906;8.808;2022-12-13T08:37:27;-5.80;99.90
38726;DHT22;24474;48.906;8.808;2022-12-13T08:39:52;-5.80;99.90
38726;DHT22;24474;48.906;8.808;2022-12-13T08:42:18;-5.70;99.90
38726;DHT22;24474;48.906;8.808;2022-12-13T08:44:47;-5.70;99.90
38726;DHT22;24474;48.906;8.808;2022-12-13T08:47:13;-5.60;99.90
38726;DHT22;24474;48.906;8.808;2022-12-13T08:49:39;-5.60;99.90
38726;DHT22;24474;48.906;8.808;2022-12-13T08:52:06;-5.60;99.90
38726;DHT22;24474;48.906;8.808;2022-12-13T08:54:32;-5.50;99.90
38726;DHT22;24474;48.906;8.808;2022-12-13T08:56:58;-5.50;99.90
38726;DHT22;24474;48.906;8.808;2022-12-13T08:59:24;-5.50;99.90
38726;DHT22;24474;48.906;8.808;2022-12-13T09:01:51;-5.40;99.90
38726;DHT22;24474;48.906;8.808;2022-12-13T09:04:17;-5.40;99.90
38726;DHT22;24474;48.906;8.808;2022-12-13T09:06:43;-5.40;99.90
38726;DHT22;24474;48.906;8.808;2022-12-13T09:09:09;-5.30;99.90
38726;DHT22;24474;48.906;8.808;2022-12-13T09:11:38;-5.30;99.90
38726;DHT22;24474;48.906;8.808;2022-12-13T09:14:07;-5.20;99.90
38726;DHT22;24474;48.906;8.808;2022-12-13T09:16:33;-5.20;99.90
38726;DHT22;24474;48.906;8.808;2022-12-13T09:19:04;-5.20;99.90
38726;DHT22;24474;48.906;8.808;2022-12-13T09:21:32;-5.10;99.90
38726;DHT22;24474;48.906;8.808;2022-12-13T09:23:58;-5.10;99.90
38726;DHT22;24474;48.906;8.808;2022-12-13T09:26:25;-5.00;99.90
38726;DHT22;24474;48.906;8.808;2022-12-13T09:28:53;-5.00;99.90
38726;DHT22;24474;48.906;8.808;2022-12-13T09:31:19;-4.90;99.90
38726;DHT22;24474;48.906;8.808;2022-12-13T09:33:46;-4.90;99.90
38726;DHT22;24474;48.906;8.808;2022-12-13T09:36:21;-4.90;99.90
38726;DHT22;24474;48.906;8.808;2022-12-13T09:38:48;-4.90;99.90
38726;DHT22;24474;48.906;8.808;2022-12-13T09:41:36;-4.80;99.90
38726;DHT22;24474;48.906;8.808;2022-12-13T09:46:34;-4.70;99.90
38726;DHT22;24474;48.906;8.808;2022-12-13T09:49:29;-4.70;99.90
38726;DHT22;24474;48.906;8.808;2022-12-13T09:51:59;-4.70;99.90
38726;DHT22;24474;48.906;8.808;2022-12-13T09:54:33;-4.60;99.90
38726;DHT22;24474;48.906;8.808;2022-12-13T09:57:00;-4.60;99.90
38726;DHT22;24474;48.906;8.808;2022-12-13T09:59:29;-4.60;99.90
38726;DHT22;24474;48.906;8.808;2022-12-13T10:01:55;-4.50;99.90
38726;DHT22;24474;48.906;8.808;2022-12-13T10:04:21;-4.50;99.90
38726;DHT22;24474;48.906;8.808;2022-12-13T10:06:52;-4.50;99.90
38726;DHT22;24474;48.906;8.808;2022-12-13T10:09:18;-4.40;99.90
38726;DHT22;24474;48.906;8.808;2022-12-13T10:11:50;-4.40;99.90
38726;DHT22;24474;48.906;8.808;2022-12-13T10:14:29;-4.40;99.90
38726;DHT22;24474;48.906;8.808;2022-12-13T10:16:59;-4.30;99.90
38726;DHT22;24474;48.906;8.808;2022-12-13T10:19:39;-4.30;99.90
38726;DHT22;24474;48.906;8.808;2022-12-13T10:22:10;-4.30;99.90
38726;DHT22;24474;48.906;8.808;2022-12-13T10:27:16;-4.20;99.90
38726;DHT22;24474;48.906;8.808;2022-12-13T10:30:11;-4.20;99.90
38726;DHT22;24474;48.906;8.808;2022-12-13T10:37:43;-4.10;99.90
38726;DHT22;24474;48.906;8.808;2022-12-13T10:40:40;-4.00;99.90
38726;DHT22;24474;48.906;8.808;2022-12-13T10:43:11;-4.00;99.90
38726;DHT22;24474;48.906;8.808;2022-12-13T10:45:37;-4.00;99.90
38726;DHT22;24474;48.906;8.808;2022-12-13T10:48:03;-3.90;99.90
38726;DHT22;24474;48.906;8.808;2022-12-13T10:50:30;-4.00;99.90
38726;DHT22;24474;48.906;8.808;2022-12-13T10:52:57;-3.90;99.90
38726;DHT22;24474;48.906;8.808;2022-12-13T10:55:34;-3.90;99.90
38726;DHT22;24474;48.906;8.808;2022-12-13T10:58:04;-3.80;99.90
38726;DHT22;24474;48.906;8.808;2022-12-13T11:00:39;-3.80;99.90
38726;DHT22;24474;48.906;8.808;2022-12-13T11:03:06;-3.80;99.90
38726;DHT22;24474;48.906;8.808;2022-12-13T11:05:34;-3.70;99.90
38726;DHT22;24474;48.906;8.808;2022-12-13T11:08:19;-3.70;99.90
38726;DHT22;24474;48.906;8.808;2022-12-13T11:10:56;-3.70;99.90
38726;DHT22;24474;48.906;8.808;2022-12-13T11:13:37;-3.70;99.90
38726;DHT22;24474;48.906;8.808;2022-12-13T11:16:19;-3.60;99.90
38726;DHT22;24474;48.906;8.808;2022-12-13T11:18:51;-3.60;99.90
38726;DHT22;24474;48.906;8.808;2022-12-13T11:21:25;-3.60;99.90
38726;DHT22;24474;48.906;8.808;2022-12-13T11:23:56;-3.60;99.90
38726;DHT22;24474;48.906;8.808;2022-12-13T11:26:24;-3.50;99.90
38726;DHT22;24474;48.906;8.808;2022-12-13T11:39:53;-3.40;99.90
38726;DHT22;24474;48.906;8.808;2022-12-13T11:42:39;-3.40;99.90
38726;DHT22;24474;48.906;8.808;2022-12-13T11:50:20;-3.30;99.90
38726;DHT22;24474;48.906;8.808;2022-12-13T11:52:52;-3.20;99.90
38726;DHT22;24474;48.906;8.808;2022-12-13T11:55:41;-3.20;99.90
38726;DHT22;24474;48.906;8.808;2022-12-13T11:58:18;-3.20;99.90
38726;DHT22;24474;48.906;8.808;2022-12-13T12:00:50;-3.20;99.90
38726;DHT22;24474;48.906;8.808;2022-12-13T12:03:21;-3.20;99.90
38726;DHT22;24474;48.906;8.808;2022-12-13T12:05:56;-3.10;99.90
38726;DHT22;24474;48.906;8.808;2022-12-13T12:11:50;-3.10;99.90
38726;DHT22;24474;48.906;8.808;2022-12-13T12:15:07;-3.10;99.90
38726;DHT22;24474;48.906;8.808;2022-12-13T12:17:11;-3.00;99.90
38726;DHT22;24474;48.906;8.808;2022-12-13T12:19:40;-3.00;99.90
38726;DHT22;24474;48.906;8.808;2022-12-13T12:22:45;-3.00;99.90
38726;DHT22;24474;48.906;8.808;2022-12-13T12:36:09;-2.90;99.90
38726;DHT22;24474;48.906;8.808;2022-12-13T12:44:23;-2.80;99.90
38726;DHT22;24474;48.906;8.808;2022-12-13T12:50:17;-2.80;99.90
38726;DHT22;24474;48.906;8.808;2022-12-13T13:00:57;-2.70;99.90
38726;DHT22;24474;48.906;8.808;2022-12-13T13:03:27;-2.60;99.90
38726;DHT22;24474;48.906;8.808;2022-12-13T13:11:00;-2.60;99.90
38726;DHT22;24474;48.906;8.808;2022-12-13T13:13:47;-2.50;99.90
38726;DHT22;24474;48.906;8.808;2022-12-13T13:16:34;-2.50;99.90
38726;DHT22;24474;48.906;8.808;2022-12-13T13:21:52;-2.50;99.90
38726;DHT22;24474;48.906;8.808;2022-12-13T13:24:30;-2.50;99.90
38726;DHT22;24474;48.906;8.808;2022-12-13T13:27:26;-2.50;99.90
38726;DHT22;24474;48.906;8.808;2022-12-13T13:30:28;-2.40;99.90
38726;DHT22;24474;48.906;8.808;2022-12-13T13:32:56;-2.40;99.90
38726;DHT22;24474;48.906;8.808;2022-12-13T13:38:02;-2.40;99.90
38726;DHT22;24474;48.906;8.808;2022-12-13T13:40:38;-2.30;99.90
38726;DHT22;24474;48.906;8.808;2022-12-13T13:46:10;-2.30;99.90
38726;DHT22;24474;48.906;8.808;2022-12-13T13:51:46;-2.30;99.90
38726;DHT22;24474;48.906;8.808;2022-12-13T14:08:44;-2.20;99.90
38726;DHT22;24474;48.906;8.808;2022-12-13T14:28:47;-2.20;99.90
38726;DHT22;24474;48.906;8.808;2022-12-13T14:31:43;-2.20;99.90
38726;DHT22;24474;48.906;8.808;2022-12-13T14:34:26;-2.20;99.90
38726;DHT22;24474;48.906;8.808;2022-12-13T14:36:54;-2.20;99.90
38726;DHT22;24474;48.906;8.808;2022-12-13T14:39:21;-2.20;99.90
38726;DHT22;24474;48.906;8.808;2022-12-13T14:41:51;-2.20;99.90
38726;DHT22;24474;48.906;8.808;2022-12-13T14:46:58;-2.20;99.90
38726;DHT22;24474;48.906;8.808;2022-12-13T14:49:26;-2.20;99.90
38726;DHT22;24474;48.906;8.808;2022-12-13T14:52:02;-2.20;99.90
38726;DHT22;24474;48.906;8.808;2022-12-13T14:54:44;-2.20;99.90
38726;DHT22;24474;48.906;8.808;2022-12-13T14:57:20;-2.20;99.90
38726;DHT22;24474;48.906;8.808;2022-12-13T14:59:48;-2.20;99.90
38726;DHT22;24474;48.906;8.808;2022-12-13T15:02:48;-2.20;99.90
38726;DHT22;24474;48.906;8.808;2022-12-13T15:05:04;-2.20;99.90
38726;DHT22;24474;48.906;8.808;2022-12-13T15:07:42;-2.20;99.90
38726;DHT22;24474;48.906;8.808;2022-12-13T15:10:33;-2.20;99.90
38726;DHT22;24474;48.906;8.808;2022-12-13T15:16:13;-2.20;99.90
38726;DHT22;24474;48.906;8.808;2022-12-13T15:18:39;-2.20;99.90
38726;DHT22;24474;48.906;8.808;2022-12-13T15:21:21;-2.30;99.90
38726;DHT22;24474;48.906;8.808;2022-12-13T15:23:48;-2.20;99.90
38726;DHT22;24474;48.906;8.808;2022-12-13T15:26:20;-2.30;99.90
38726;DHT22;24474;48.906;8.808;2022-12-13T15:28:52;-2.30;99.90
38726;DHT22;24474;48.906;8.808;2022-12-13T15:31:18;-2.30;99.90
38726;DHT22;24474;48.906;8.808;2022-12-13T15:33:44;-2.30;99.90
38726;DHT22;24474;48.906;8.808;2022-12-13T15:36:17;-2.30;99.90
38726;DHT22;24474;48.906;8.808;2022-12-13T15:39:03;-2.30;99.90
38726;DHT22;24474;48.906;8.808;2022-12-13T15:41:34;-2.30;99.90
38726;DHT22;24474;48.906;8.808;2022-12-13T15:44:27;-2.30;99.90
38726;DHT22;24474;48.906;8.808;2022-12-13T15:47:00;-2.30;99.90
38726;DHT22;24474;48.906;8.808;2022-12-13T15:49:52;-2.30;99.90
38726;DHT22;24474;48.906;8.808;2022-12-13T15:52:34;-2.40;99.90
38726;DHT22;24474;48.906;8.808;2022-12-13T15:57:54;-2.40;99.90
38726;DHT22;24474;48.906;8.808;2022-12-13T16:00:25;-2.40;99.90
38726;DHT22;24474;48.906;8.808;2022-12-13T16:03:05;-2.40;99.90
38726;DHT22;24474;48.906;8.808;2022-12-13T16:05:39;-2.40;99.90
38726;DHT22;24474;48.906;8.808;2022-12-13T16:08:16;-2.40;99.90
38726;DHT22;24474;48.906;8.808;2022-12-13T16:10:48;-2.40;99.90
38726;DHT22;24474;48.906;8.808;2022-12-13T16:13:23;-2.40;99.90
38726;DHT22;24474;48.906;8.808;2022-12-13T16:15:51;-2.40;99.90
38726;DHT22;24474;48.906;8.808;2022-12-13T16:20:48;-2.50;99.90
38726;DHT22;24474;48.906;8.808;2022-12-13T16:23:17;-2.40;99.90
38726;DHT22;24474;48.906;8.808;2022-12-13T16:25:42;-2.40;99.90
38726;DHT22;24474;48.906;8.808;2022-12-13T16:28:16;-2.40;99.90
38726;DHT22;24474;48.906;8.808;2022-12-13T16:31:17;-2.40;99.90
38726;DHT22;24474;48.906;8.808;2022-12-13T16:33:44;-2.40;99.90
38726;DHT22;24474;48.906;8.808;2022-12-13T16:36:11;-2.50;99.90
38726;DHT22;24474;48.906;8.808;2022-12-13T16:38:37;-2.40;99.90
38726;DHT22;24474;48.906;8.808;2022-12-13T16:41:05;-2.30;99.90
38726;DHT22;24474;48.906;8.808;2022-12-13T16:43:45;-2.40;99.90
38726;DHT22;24474;48.906;8.808;2022-12-13T16:46:12;-2.40;99.90
38726;DHT22;24474;48.906;8.808;2022-12-13T16:48:39;-2.50;99.90
38726;DHT22;24474;48.906;8.808;2022-12-13T16:51:05;-2.50;99.90
38726;DHT22;24474;48.906;8.808;2022-12-13T16:53:33;-2.50;99.90
38726;DHT22;24474;48.906;8.808;2022-12-13T16:55:58;-2.50;99.90
38726;DHT22;24474;48.906;8.808;2022-12-13T16:58:24;-2.50;99.90
38726;DHT22;24474;48.906;8.808;2022-12-13T17:00:50;-2.50;99.90
38726;DHT22;24474;48.906;8.808;2022-12-13T17:03:16;-2.50;99.90
38726;DHT22;24474;48.906;8.808;2022-12-13T17:05:43;-2.50;99.90
38726;DHT22;24474;48.906;8.808;2022-12-13T17:08:11;-2.60;99.90
38726;DHT22;24474;48.906;8.808;2022-12-13T17:10:38;-2.60;99.90
38726;DHT22;24474;48.906;8.808;2022-12-13T17:13:04;-2.60;99.90
38726;DHT22;24474;48.906;8.808;2022-12-13T17:15:30;-2.60;99.90
38726;DHT22;24474;48.906;8.808;2022-12-13T17:17:56;-2.60;99.90
38726;DHT22;24474;48.906;8.808;2022-12-13T17:20:21;-2.60;99.90
38726;DHT22;24474;48.906;8.808;2022-12-13T17:22:48;-2.60;99.90
38726;DHT22;24474;48.906;8.808;2022-12-13T17:25:14;-2.60;99.90
38726;DHT22;24474;48.906;8.808;2022-12-13T17:27:44;-2.60;99.90
38726;DHT22;24474;48.906;8.808;2022-12-13T17:30:15;-2.60;99.90
38726;DHT22;24474;48.906;8.808;2022-12-13T17:32:41;-2.60;99.90
38726;DHT22;24474;48.906;8.808;2022-12-13T17:35:07;-2.60;99.90
38726;DHT22;24474;48.906;8.808;2022-12-13T17:37:33;-2.60;99.90
38726;DHT22;24474;48.906;8.808;2022-12-13T17:40:00;-2.60;99.90
38726;DHT22;24474;48.906;8.808;2022-12-13T17:42:27;-2.60;99.90
38726;DHT22;24474;48.906;8.808;2022-12-13T17:44:53;-2.60;99.90
38726;DHT22;24474;48.906;8.808;2022-12-13T17:47:19;-2.70;99.90
38726;DHT22;24474;48.906;8.808;2022-12-13T17:49:45;-2.70;99.90
38726;DHT22;24474;48.906;8.808;2022-12-13T17:52:10;-2.70;99.90
38726;DHT22;24474;48.906;8.808;2022-12-13T17:54:36;-2.70;99.90
38726;DHT22;24474;48.906;8.808;2022-12-13T17:57:02;-2.70;99.90
38726;DHT22;24474;48.906;8.808;2022-12-13T17:59:28;-2.70;99.90
38726;DHT22;24474;48.906;8.808;2022-12-13T18:01:56;-2.70;99.90
38726;DHT22;24474;48.906;8.808;2022-12-13T18:04:22;-2.70;99.90
38726;DHT22;24474;48.906;8.808;2022-12-13T18:06:51;-2.70;99.90
38726;DHT22;24474;48.906;8.808;2022-12-13T18:09:17;-2.70;99.90